createdAt,value
2019-01-31T00:00:09.442Z,42.77
2019-01-31T00:03:06.061Z,42.80
2019-01-31T00:05:51.412Z,42.70
2019-01-31T00:09:06.498Z,42.10
2019-01-31T00:12:07.833Z,43.57
2019-01-31T00:14:59.388Z,41.23
2019-01-31T00:17:55.322Z,45.13
2019-01-31T00:20:55.727Z,43.93
2019-01-31T00:24:04.438Z,41.90
2019-01-31T00:27:08.889Z,40.47
2019-01-31T00:30:07.079Z,40.87
2019-01-31T00:33:17.790Z,39.67
2019-01-31T00:36:34.499Z,40.47
2019-01-31T00:39:27.353Z,39.50
2019-01-31T00:42:19.503Z,37.83
2019-01-31T00:45:31.678Z,41.90
2019-01-31T00:48:16.103Z,44.33
2019-01-31T00:51:22.780Z,40.90
2019-01-31T00:54:13.771Z,40.20
2019-01-31T00:57:25.864Z,38.53
2019-01-31T01:00:39.353Z,37.17
2019-01-31T01:03:55.366Z,42.67
2019-01-31T01:07:17.746Z,39.93
2019-01-31T01:10:01.498Z,36.60
2019-01-31T01:13:20.951Z,40.57
2019-01-31T01:16:15.350Z,38.50
2019-01-31T01:19:15.604Z,39.90
2019-01-31T01:22:40.608Z,38.70
2019-01-31T01:25:33.431Z,36.97
2019-01-31T01:28:38.499Z,37.50
2019-01-31T01:31:35.897Z,37.43
2019-01-31T01:34:18.600Z,40.07
2019-01-31T01:36:57.922Z,38.07
2019-01-31T01:39:52.816Z,38.20
2019-01-31T01:42:55.955Z,33.93
2019-01-31T01:45:44.468Z,38.57
2019-01-31T01:48:29.232Z,37.70
2019-01-31T01:51:07.095Z,38.50
2019-01-31T01:53:52.313Z,37.60
2019-01-31T01:57:05.516Z,36.37
2019-01-31T02:00:07.853Z,38.17
2019-01-31T02:03:20.816Z,38.07
2019-01-31T02:06:06.053Z,34.70
2019-01-31T02:09:06.892Z,40.40
2019-01-31T02:11:45.345Z,35.77
2019-01-31T02:14:29.503Z,36.03
2019-01-31T02:17:23.716Z,33.60
2019-01-31T02:20:26.263Z,35.90
2019-01-31T02:23:16.208Z,38.10
2019-01-31T02:26:17.705Z,35.83
2019-01-31T02:29:20.993Z,36.93
2019-01-31T02:32:07.662Z,32.07
2019-01-31T02:35:26.880Z,35.07
2019-01-31T02:38:31.002Z,32.10
2019-01-31T02:41:23.725Z,32.30
2019-01-31T02:44:31.917Z,34.10
2019-01-31T02:47:22.066Z,34.33
2019-01-31T02:50:40.334Z,31.17
2019-01-31T02:53:39.313Z,34.80
2019-01-31T02:56:31.547Z,36.40
2019-01-31T02:59:41.853Z,35.23
2019-01-31T03:02:42.661Z,33.50
2019-01-31T03:05:50.144Z,33.83
2019-01-31T03:08:44.291Z,30.50
2019-01-31T03:11:33.886Z,32.47
2019-01-31T03:14:32.740Z,31.60
2019-01-31T03:17:26.864Z,32.97
2019-01-31T03:20:30.598Z,31.07
2019-01-31T03:23:42.434Z,35.50
2019-01-31T03:26:22.040Z,31.57
2019-01-31T03:29:41.471Z,31.60
2019-01-31T03:32:34.163Z,34.00
2019-01-31T03:35:17.653Z,28.07
2019-01-31T03:38:33.300Z,32.60
2019-01-31T03:41:41.047Z,31.20
2019-01-31T03:44:18.708Z,30.20
2019-01-31T03:47:32.255Z,31.80
2019-01-31T03:50:26.490Z,31.17
2019-01-31T03:53:24.649Z,31.07
2019-01-31T03:56:48.664Z,33.03
2019-01-31T03:59:57.864Z,30.10
2019-01-31T04:03:04.002Z,28.17
2019-01-31T04:05:37.214Z,28.53
2019-01-31T04:08:06.743Z,33.00
2019-01-31T04:10:35.779Z,29.50
2019-01-31T04:13:05.572Z,30.77
2019-01-31T04:15:34.699Z,30.07
2019-01-31T04:18:03.691Z,30.07
2019-01-31T04:20:32.543Z,30.07
2019-01-31T04:23:01.516Z,30.80
2019-01-31T04:25:30.547Z,29.63
2019-01-31T04:27:59.699Z,31.87
2019-01-31T04:30:28.870Z,27.47
2019-01-31T04:32:57.832Z,31.87
2019-01-31T04:35:27.237Z,34.37
2019-01-31T04:37:56.222Z,29.20
2019-01-31T04:40:31.451Z,29.47
2019-01-31T04:42:56.164Z,28.67
2019-01-31T04:45:25.112Z,28.87
2019-01-31T04:47:56.230Z,27.03
2019-01-31T04:50:24.837Z,29.10
2019-01-31T04:52:53.776Z,28.30
2019-01-31T04:55:22.942Z,29.07
2019-01-31T04:57:51.905Z,27.87
2019-01-31T05:00:21.085Z,27.37
2019-01-31T05:02:50.093Z,28.83
2019-01-31T05:05:19.253Z,28.90
2019-01-31T05:07:48.662Z,28.63
2019-01-31T05:10:17.727Z,25.53
2019-01-31T05:12:47.117Z,27.17
2019-01-31T05:15:16.262Z,27.63
2019-01-31T05:17:45.597Z,26.63
2019-01-31T05:20:16.817Z,26.87
2019-01-31T05:22:45.899Z,28.47
2019-01-31T05:25:15.370Z,26.40
2019-01-31T05:27:44.351Z,28.07
2019-01-31T05:30:15.174Z,25.63
2019-01-31T05:32:44.257Z,26.53
2019-01-31T05:35:13.648Z,28.03
2019-01-31T05:37:45.708Z,28.67
2019-01-31T05:40:15.742Z,27.70
2019-01-31T05:42:44.685Z,26.47
2019-01-31T05:45:15.336Z,23.53
2019-01-31T05:47:44.446Z,24.60
2019-01-31T05:50:17.784Z,26.17
2019-01-31T05:52:46.830Z,27.97
2019-01-31T05:55:16.155Z,25.30
2019-01-31T05:57:45.159Z,24.97
2019-01-31T06:00:22.470Z,26.37
2019-01-31T06:02:53.009Z,28.17
2019-01-31T06:05:22.259Z,27.77
2019-01-31T06:07:51.325Z,25.30
2019-01-31T06:10:22.812Z,28.30
2019-01-31T06:12:53.295Z,24.20
2019-01-31T06:15:22.387Z,26.43
2019-01-31T06:17:51.746Z,27.20
2019-01-31T06:20:23.325Z,25.47
2019-01-31T06:22:52.299Z,25.83
2019-01-31T06:25:22.077Z,26.83
2019-01-31T06:27:51.450Z,27.60
2019-01-31T06:30:20.795Z,25.60
2019-01-31T06:32:49.966Z,27.93
2019-01-31T06:35:19.227Z,26.67
2019-01-31T06:37:48.246Z,23.57
2019-01-31T06:40:19.244Z,31.03
2019-01-31T06:42:48.331Z,25.73
2019-01-31T06:45:19.114Z,29.07
2019-01-31T06:47:48.261Z,24.73
2019-01-31T06:50:17.365Z,24.30
2019-01-31T06:52:46.687Z,24.07
2019-01-31T06:55:15.869Z,23.87
2019-01-31T06:57:44.947Z,27.77
2019-01-31T07:00:17.049Z,25.23
2019-01-31T07:02:46.226Z,22.53
2019-01-31T07:05:15.566Z,25.50
2019-01-31T07:07:44.655Z,26.17
2019-01-31T07:10:17.237Z,26.30
2019-01-31T07:12:46.448Z,23.70
2019-01-31T07:15:15.731Z,24.97
2019-01-31T07:17:44.897Z,24.73
2019-01-31T07:20:15.941Z,24.00
2019-01-31T07:22:45.338Z,23.93
2019-01-31T07:25:17.507Z,26.33
2019-01-31T07:27:46.769Z,23.73
2019-01-31T07:30:20.370Z,24.00
2019-01-31T07:32:50.090Z,27.13
2019-01-31T07:35:19.633Z,22.53
2019-01-31T07:37:48.817Z,24.30
2019-01-31T07:40:19.695Z,25.60
2019-01-31T07:42:48.895Z,24.17
2019-01-31T07:45:20.818Z,24.53
2019-01-31T07:47:50.065Z,22.90
2019-01-31T07:50:19.412Z,24.93
2019-01-31T07:52:51.472Z,25.13
2019-01-31T07:55:20.681Z,27.20
2019-01-31T07:57:49.773Z,25.67
2019-01-31T08:00:19.877Z,26.03
2019-01-31T08:02:49.951Z,29.33
2019-01-31T08:05:20.487Z,29.47
2019-01-31T08:07:51.072Z,23.57
2019-01-31T08:10:23.391Z,23.83
2019-01-31T08:12:52.446Z,24.63
2019-01-31T08:15:21.655Z,25.40
2019-01-31T08:17:50.684Z,27.97
2019-01-31T08:20:19.966Z,24.77
2019-01-31T08:22:49.090Z,24.93
2019-01-31T08:25:20.229Z,26.63
2019-01-31T08:27:50.488Z,22.10
2019-01-31T08:30:24.653Z,23.13
2019-01-31T08:32:53.952Z,24.90
2019-01-31T08:35:23.757Z,24.30
2019-01-31T08:37:53.040Z,25.87
2019-01-31T08:40:22.121Z,26.30
2019-01-31T08:42:51.420Z,23.47
2019-01-31T08:45:20.728Z,23.50
2019-01-31T08:47:49.791Z,24.53
2019-01-31T08:50:21.295Z,24.50
2019-01-31T08:52:50.479Z,26.30
2019-01-31T08:55:19.703Z,25.27
2019-01-31T08:57:48.900Z,25.97
2019-01-31T09:00:23.245Z,24.93
2019-01-31T09:02:52.508Z,20.33
2019-01-31T09:05:21.736Z,25.47
2019-01-31T09:07:50.962Z,21.83
2019-01-31T09:10:25.019Z,24.27
2019-01-31T09:12:54.250Z,24.00
2019-01-31T09:15:24.750Z,25.07
2019-01-31T09:17:53.797Z,22.87
2019-01-31T09:20:28.186Z,25.30
2019-01-31T09:23:37.857Z,21.37
2019-01-31T09:26:34.963Z,24.83
2019-01-31T09:29:41.360Z,32.53
2019-01-31T09:33:03.830Z,25.93
2019-01-31T09:35:42.809Z,25.10
2019-01-31T09:38:59.634Z,22.67
2019-01-31T09:41:33.929Z,23.83
2019-01-31T09:44:39.967Z,22.43
2019-01-31T09:47:58.717Z,26.97
2019-01-31T09:51:18.314Z,24.47
2019-01-31T09:54:46.850Z,31.00
2019-01-31T09:57:53.900Z,27.60
2019-01-31T10:01:12.250Z,25.83
2019-01-31T10:03:54.223Z,24.27
2019-01-31T10:07:06.285Z,25.27
2019-01-31T10:10:09.408Z,21.90
2019-01-31T10:13:00.967Z,24.73
2019-01-31T10:16:02.081Z,19.20
2019-01-31T10:18:47.447Z,23.40
2019-01-31T10:21:58.032Z,20.07
2019-01-31T10:25:21.711Z,118.17
2019-01-31T10:28:50.108Z,41.30
2019-01-31T10:31:30.703Z,25.20
2019-01-31T10:34:43.339Z,18.93
2019-01-31T10:37:51.931Z,20.77
2019-01-31T10:40:52.959Z,19.47
2019-01-31T10:44:24.269Z,16.37
2019-01-31T10:47:38.738Z,18.13
2019-01-31T10:50:44.506Z,15.83
2019-01-31T10:54:03.966Z,14.47
2019-01-31T10:57:00.913Z,16.73
2019-01-31T10:59:59.761Z,15.40
2019-01-31T11:03:21.433Z,16.07
2019-01-31T11:06:18.489Z,15.63
2019-01-31T11:09:36.498Z,15.47
2019-01-31T11:12:33.213Z,15.40
2019-01-31T11:15:29.331Z,15.47
2019-01-31T11:18:39.918Z,14.77
2019-01-31T11:21:35.548Z,14.90
2019-01-31T11:24:27.946Z,13.13
2019-01-31T11:27:19.732Z,14.40
2019-01-31T11:30:19.720Z,14.17
2019-01-31T11:33:13.136Z,15.03
2019-01-31T11:35:53.189Z,13.87
2019-01-31T11:39:00.045Z,12.47
2019-01-31T11:41:56.768Z,13.37
2019-01-31T11:45:25.179Z,13.33
2019-01-31T11:48:31.349Z,14.47
2019-01-31T11:51:36.689Z,14.77
2019-01-31T11:54:38.178Z,15.47
2019-01-31T11:57:50.278Z,15.00
2019-01-31T12:00:22.707Z,14.90
2019-01-31T12:02:55.143Z,13.87
2019-01-31T12:05:22.609Z,11.30
2019-01-31T12:07:51.937Z,11.50
2019-01-31T12:10:21.392Z,18.97
2019-01-31T12:12:50.487Z,14.13
2019-01-31T12:15:19.795Z,26.50
2019-01-31T12:17:48.830Z,14.27
2019-01-31T12:20:18.304Z,13.40
2019-01-31T12:22:48.033Z,10.53
2019-01-31T12:25:17.215Z,10.83
2019-01-31T12:27:47.642Z,10.30
2019-01-31T12:30:22.540Z,13.17
2019-01-31T12:32:51.760Z,9.43
2019-01-31T12:35:20.953Z,10.37
2019-01-31T12:37:49.987Z,10.03
2019-01-31T12:40:26.820Z,11.20
2019-01-31T12:42:55.869Z,10.70
2019-01-31T12:45:24.981Z,8.60
2019-01-31T12:47:54.086Z,10.20
2019-01-31T12:50:25.999Z,9.10
2019-01-31T12:52:55.479Z,10.53
2019-01-31T12:55:25.113Z,8.33
2019-01-31T12:57:54.157Z,9.83
2019-01-31T13:00:27.996Z,8.67
2019-01-31T13:02:57.070Z,8.83
2019-01-31T13:05:26.730Z,8.27
2019-01-31T13:07:55.853Z,8.10
2019-01-31T13:10:25.333Z,9.23
2019-01-31T13:12:55.298Z,10.13
2019-01-31T13:15:24.453Z,10.17
2019-01-31T13:17:54.222Z,8.67
2019-01-31T13:20:24.677Z,8.97
2019-01-31T13:22:56.161Z,7.70
2019-01-31T13:25:27.046Z,8.83
2019-01-31T13:28:01.559Z,9.37
2019-01-31T13:30:30.603Z,10.10
2019-01-31T13:32:59.865Z,8.20
2019-01-31T13:35:28.843Z,8.43
2019-01-31T13:37:58.063Z,7.77
2019-01-31T13:40:27.603Z,7.27
2019-01-31T13:42:57.242Z,6.83
2019-01-31T13:45:28.969Z,10.30
2019-01-31T13:48:01.308Z,8.80
2019-01-31T13:50:30.394Z,10.43
2019-01-31T13:52:59.572Z,15.90
2019-01-31T13:55:33.342Z,13.57
2019-01-31T13:58:02.541Z,11.40
2019-01-31T14:00:31.750Z,13.67
2019-01-31T14:03:01.009Z,13.80
2019-01-31T14:05:30.456Z,12.20
2019-01-31T14:08:00.976Z,14.17
2019-01-31T14:10:30.127Z,14.93
2019-01-31T14:12:59.138Z,13.00
2019-01-31T14:15:34.983Z,12.07
2019-01-31T14:18:04.342Z,14.23
2019-01-31T14:20:33.536Z,18.33
2019-01-31T14:23:02.730Z,18.30
2019-01-31T14:25:31.861Z,14.83
2019-01-31T14:28:00.873Z,11.33
2019-01-31T14:30:35.357Z,12.03
2019-01-31T14:33:07.777Z,12.53
2019-01-31T14:35:37.177Z,12.73
2019-01-31T14:38:06.688Z,12.77
2019-01-31T14:40:35.729Z,49.67
2019-01-31T14:43:04.937Z,34.63
2019-01-31T14:45:33.950Z,27.10
2019-01-31T14:48:03.120Z,16.20
2019-01-31T14:50:33.133Z,15.13
2019-01-31T14:53:02.256Z,14.93
2019-01-31T14:55:31.478Z,11.93
2019-01-31T14:58:00.474Z,15.13
2019-01-31T15:00:30.947Z,14.07
2019-01-31T15:02:59.993Z,13.40
2019-01-31T15:05:29.608Z,11.97
2019-01-31T15:07:59.030Z,12.73
2019-01-31T15:10:28.756Z,12.80
2019-01-31T15:12:58.311Z,10.73
2019-01-31T15:15:27.800Z,15.63
2019-01-31T15:17:57.052Z,13.60
2019-01-31T15:20:36.082Z,11.10
2019-01-31T15:23:02.228Z,12.67
2019-01-31T15:25:31.433Z,13.27
2019-01-31T15:28:00.440Z,13.33
2019-01-31T15:30:31.785Z,13.47
2019-01-31T15:33:01.362Z,13.33
2019-01-31T15:35:32.321Z,13.40
2019-01-31T15:38:01.546Z,14.83
2019-01-31T15:40:34.489Z,15.23
2019-01-31T15:43:03.701Z,16.83
2019-01-31T15:45:33.400Z,17.67
2019-01-31T15:48:02.613Z,16.10
2019-01-31T15:50:33.779Z,16.97
2019-01-31T15:53:02.768Z,15.80
2019-01-31T15:55:32.055Z,15.83
2019-01-31T15:58:01.343Z,15.40
2019-01-31T16:00:39.201Z,17.77
2019-01-31T16:03:12.797Z,17.90
2019-01-31T16:05:42.126Z,18.90
2019-01-31T16:08:11.679Z,16.40
2019-01-31T16:10:40.737Z,15.00
2019-01-31T16:13:12.873Z,17.03
2019-01-31T16:15:42.706Z,13.93
2019-01-31T16:18:13.016Z,14.53
2019-01-31T16:20:42.777Z,15.00
2019-01-31T16:23:13.429Z,15.10
2019-01-31T16:25:43.382Z,15.37
2019-01-31T16:28:13.619Z,14.37
2019-01-31T16:30:43.037Z,14.40
2019-01-31T16:33:12.324Z,14.93
2019-01-31T16:35:42.702Z,13.77
2019-01-31T16:38:14.802Z,14.33
2019-01-31T16:40:44.146Z,14.27
2019-01-31T16:43:13.425Z,14.00
2019-01-31T16:45:42.684Z,16.97
2019-01-31T16:48:12.312Z,15.47
2019-01-31T16:50:42.003Z,14.73
2019-01-31T16:53:11.106Z,17.77
2019-01-31T16:55:40.172Z,16.77
2019-01-31T16:58:09.312Z,16.03
2019-01-31T17:00:38.483Z,15.20
2019-01-31T17:03:07.772Z,16.70
2019-01-31T17:05:37.446Z,16.87
2019-01-31T17:08:07.417Z,20.93
2019-01-31T17:10:38.455Z,17.67
2019-01-31T17:13:07.565Z,18.17
2019-01-31T17:15:36.740Z,18.47
2019-01-31T17:18:07.612Z,17.83
2019-01-31T17:20:42.915Z,20.53
2019-01-31T17:23:12.227Z,20.73
2019-01-31T17:25:41.837Z,20.70
2019-01-31T17:28:10.971Z,19.87
2019-01-31T17:30:40.114Z,19.97
2019-01-31T17:33:09.296Z,20.53
2019-01-31T17:35:38.398Z,22.93
2019-01-31T17:38:07.763Z,23.43
2019-01-31T17:40:39.062Z,20.43
2019-01-31T17:43:09.734Z,20.23
2019-01-31T17:45:39.099Z,23.03
2019-01-31T17:48:09.502Z,21.13
2019-01-31T17:50:38.549Z,24.17
2019-01-31T17:53:07.467Z,24.83
2019-01-31T17:55:36.470Z,21.87
2019-01-31T17:58:05.595Z,25.50
2019-01-31T18:00:46.102Z,25.07
2019-01-31T18:03:15.178Z,25.33
2019-01-31T18:05:44.339Z,22.30
2019-01-31T18:08:13.571Z,24.23
2019-01-31T18:10:42.865Z,25.70
2019-01-31T18:13:12.092Z,22.63
2019-01-31T18:15:42.605Z,24.60
2019-01-31T18:18:16.102Z,27.10
2019-01-31T18:20:45.090Z,26.83
2019-01-31T18:23:16.249Z,27.93
2019-01-31T18:25:45.567Z,25.80
2019-01-31T18:28:19.425Z,26.10
2019-01-31T18:30:48.568Z,26.07
2019-01-31T18:33:17.806Z,43.00
2019-01-31T18:35:46.939Z,35.83
2019-01-31T18:38:15.995Z,25.97
2019-01-31T18:40:45.152Z,25.30
2019-01-31T18:43:14.299Z,25.57
2019-01-31T18:45:53.061Z,25.77
2019-01-31T18:48:14.280Z,23.93
2019-01-31T18:50:44.216Z,28.37
2019-01-31T18:53:13.589Z,26.73
2019-01-31T18:55:42.949Z,26.63
2019-01-31T18:58:12.126Z,28.83
2019-01-31T19:00:46.811Z,28.03
2019-01-31T19:03:16.497Z,27.20
2019-01-31T19:05:46.478Z,30.37
2019-01-31T19:08:16.324Z,29.07
2019-01-31T19:10:45.521Z,28.47
2019-01-31T19:13:14.772Z,28.50
2019-01-31T19:15:46.377Z,31.00
2019-01-31T19:18:14.881Z,38.97
2019-01-31T19:20:44.510Z,32.37
2019-01-31T19:23:16.883Z,28.20
2019-01-31T19:25:47.309Z,31.50
2019-01-31T19:28:16.826Z,30.87
2019-01-31T19:30:45.918Z,32.73
2019-01-31T19:33:15.089Z,29.87
2019-01-31T19:35:44.267Z,28.37
2019-01-31T19:38:13.427Z,29.37
2019-01-31T19:40:46.385Z,31.17
2019-01-31T19:43:15.404Z,30.37
2019-01-31T19:45:46.869Z,33.47
2019-01-31T19:48:16.408Z,30.43
2019-01-31T19:50:45.524Z,40.23
2019-01-31T19:53:14.649Z,33.83
2019-01-31T19:55:44.240Z,31.90
2019-01-31T19:58:13.888Z,47.40
2019-01-31T20:00:43.256Z,52.20
2019-01-31T20:03:12.589Z,40.17
2019-01-31T20:05:41.990Z,32.43
2019-01-31T20:08:12.144Z,33.13
2019-01-31T20:10:44.208Z,31.43
2019-01-31T20:13:12.962Z,35.17
2019-01-31T20:15:45.982Z,33.03
2019-01-31T20:18:15.383Z,35.17
2019-01-31T20:20:44.548Z,37.47
2019-01-31T20:23:13.830Z,35.17
2019-01-31T20:25:43.187Z,39.30
2019-01-31T20:28:12.495Z,43.77
2019-01-31T20:30:42.448Z,33.97
2019-01-31T20:33:11.729Z,34.87
2019-01-31T20:35:40.979Z,35.20
2019-01-31T20:38:10.408Z,36.40
2019-01-31T20:40:41.451Z,34.23
2019-01-31T20:43:11.923Z,36.63
2019-01-31T20:45:41.286Z,35.47
2019-01-31T20:48:10.535Z,34.90
2019-01-31T20:50:41.279Z,37.70
2019-01-31T20:53:10.614Z,36.07
2019-01-31T20:55:39.903Z,38.93
2019-01-31T20:58:09.551Z,39.67
2019-01-31T21:00:48.344Z,39.87
2019-01-31T21:03:17.841Z,54.43
2019-01-31T21:05:47.106Z,45.83
2019-01-31T21:08:16.484Z,41.37
2019-01-31T21:10:45.756Z,43.17
2019-01-31T21:13:14.995Z,40.07
2019-01-31T21:15:44.756Z,45.93
2019-01-31T21:18:14.090Z,42.33
2019-01-31T21:20:43.323Z,62.73
2019-01-31T21:23:12.434Z,47.87
2019-01-31T21:26:03.496Z,59.27
2019-01-31T21:28:32.500Z,65.63
2019-01-31T21:31:01.624Z,53.17
2019-01-31T21:33:30.749Z,46.77
2019-01-31T21:36:00.167Z,44.00
2019-01-31T21:38:29.442Z,49.43
2019-01-31T21:40:58.513Z,44.27
2019-01-31T21:43:27.652Z,43.63
2019-01-31T21:45:56.762Z,42.03
2019-01-31T21:48:26.357Z,47.73
2019-01-31T21:50:55.516Z,45.50
2019-01-31T21:53:37.633Z,45.67
2019-01-31T21:56:06.937Z,46.10
2019-01-31T21:58:36.206Z,42.03
2019-01-31T22:01:05.735Z,49.13
2019-01-31T22:03:35.123Z,44.40
2019-01-31T22:06:04.551Z,41.63
2019-01-31T22:08:33.556Z,48.37
2019-01-31T22:11:06.043Z,45.20
2019-01-31T22:13:38.184Z,48.80
2019-01-31T22:16:07.520Z,53.83
2019-01-31T22:18:37.063Z,48.00
2019-01-31T22:21:06.167Z,48.77
2019-01-31T22:23:35.299Z,47.97
2019-01-31T22:26:04.612Z,52.33
2019-01-31T22:28:33.760Z,48.27
2019-01-31T22:31:02.758Z,51.60
2019-01-31T22:33:31.757Z,47.67
2019-01-31T22:36:02.501Z,51.03
2019-01-31T22:38:31.659Z,50.30
2019-01-31T22:41:00.830Z,53.93
2019-01-31T22:43:30.025Z,53.03
2019-01-31T22:45:59.100Z,55.10
2019-01-31T22:48:28.167Z,56.00
2019-01-31T22:50:59.955Z,53.60
2019-01-31T22:53:29.046Z,49.73
2019-01-31T22:55:58.101Z,53.73
2019-01-31T22:58:27.029Z,53.43
2019-01-31T23:01:23.336Z,53.80
2019-01-31T23:03:52.725Z,53.87
2019-01-31T23:06:21.887Z,53.77
2019-01-31T23:08:50.902Z,53.03
2019-01-31T23:11:20.116Z,53.33
2019-01-31T23:13:49.315Z,51.17
2019-01-31T23:16:18.563Z,53.30
2019-01-31T23:18:47.588Z,55.33
2019-01-31T23:21:16.571Z,55.93
2019-01-31T23:23:45.562Z,52.50
2019-01-31T23:26:14.697Z,55.60
2019-01-31T23:28:43.687Z,55.77
2019-01-31T23:31:12.784Z,57.63
2019-01-31T23:33:41.777Z,54.67
2019-01-31T23:36:10.813Z,55.67
2019-01-31T23:38:39.852Z,56.53
2019-01-31T23:41:08.765Z,55.53
2019-01-31T23:43:37.726Z,54.87
2019-01-31T23:46:07.270Z,57.47
2019-01-31T23:48:38.564Z,57.87
2019-01-31T23:51:07.613Z,60.57
2019-01-31T23:53:36.631Z,57.80
2019-01-31T23:56:06.221Z,58.37
2019-01-31T23:58:35.617Z,57.47
